sensor_id;sensor_type;location;lat;lon;timestamp;P1;durP1;ratioP1;P2;durP2;ratioP2
19675;SDS011;39539;52.202;9.876;2024-01-27T00:00:20;9.25;;;2.05;;
19675;SDS011;39539;52.202;9.876;2024-01-27T00:02:45;8.25;;;2.65;;
19675;SDS011;39539;52.202;9.876;2024-01-27T00:05:11;13.18;;;2.45;;
19675;SDS011;39539;52.202;9.876;2024-01-27T00:07:36;9.57;;;2.63;;
19675;SDS011;39539;52.202;9.876;2024-01-27T00:10:02;15.20;;;3.45;;
19675;SDS011;39539;52.202;9.876;2024-01-27T00:12:27;7.35;;;3.05;;
19675;SDS011;39539;52.202;9.876;2024-01-27T00:14:52;13.48;;;2.90;;
19675;SDS011;39539;52.202;9.876;2024-01-27T00:17:18;8.80;;;2.38;;
19675;SDS011;39539;52.202;9.876;2024-01-27T00:19:48;9.23;;;2.63;;
19675;SDS011;39539;52.202;9.876;2024-01-27T00:22:14;10.85;;;2.42;;
19675;SDS011;39539;52.202;9.876;2024-01-27T00:24:39;8.75;;;2.88;;
19675;SDS011;39539;52.202;9.876;2024-01-27T00:27:04;16.20;;;1.95;;
19675;SDS011;39539;52.202;9.876;2024-01-27T00:29:30;13.20;;;2.30;;
19675;SDS011;39539;52.202;9.876;2024-01-27T00:31:55;11.70;;;2.08;;
19675;SDS011;39539;52.202;9.876;2024-01-27T00:34:20;11.00;;;3.15;;
19675;SDS011;39539;52.202;9.876;2024-01-27T00:36:46;20.23;;;2.53;;
19675;SDS011;39539;52.202;9.876;2024-01-27T00:39:17;7.60;;;2.35;;
19675;SDS011;39539;52.202;9.876;2024-01-27T00:41:42;7.32;;;2.10;;
19675;SDS011;39539;52.202;9.876;2024-01-27T00:44:08;14.45;;;2.33;;
19675;SDS011;39539;52.202;9.876;2024-01-27T00:46:33;7.22;;;2.28;;
19675;SDS011;39539;52.202;9.876;2024-01-27T00:48:59;11.15;;;2.90;;
19675;SDS011;39539;52.202;9.876;2024-01-27T00:51:24;12.13;;;2.75;;
19675;SDS011;39539;52.202;9.876;2024-01-27T00:53:49;7.07;;;2.10;;
19675;SDS011;39539;52.202;9.876;2024-01-27T00:56:15;6.63;;;2.13;;
19675;SDS011;39539;52.202;9.876;2024-01-27T00:58:40;9.70;;;2.45;;
19675;SDS011;39539;52.202;9.876;2024-01-27T01:01:06;14.73;;;2.40;;
19675;SDS011;39539;52.202;9.876;2024-01-27T01:03:32;12.30;;;3.00;;
19675;SDS011;39539;52.202;9.876;2024-01-27T01:05:57;16.63;;;2.95;;
19675;SDS011;39539;52.202;9.876;2024-01-27T01:08:22;11.40;;;2.90;;
19675;SDS011;39539;52.202;9.876;2024-01-27T01:10:48;17.60;;;3.13;;
19675;SDS011;39539;52.202;9.876;2024-01-27T01:13:13;16.02;;;2.85;;
19675;SDS011;39539;52.202;9.876;2024-01-27T01:15:38;18.27;;;3.28;;
19675;SDS011;39539;52.202;9.876;2024-01-27T01:18:04;13.02;;;2.92;;
19675;SDS011;39539;52.202;9.876;2024-01-27T01:20:30;10.32;;;2.55;;
19675;SDS011;39539;52.202;9.876;2024-01-27T01:22:55;11.60;;;2.72;;
19675;SDS011;39539;52.202;9.876;2024-01-27T01:25:20;15.98;;;2.72;;
19675;SDS011;39539;52.202;9.876;2024-01-27T01:27:46;12.48;;;3.25;;
19675;SDS011;39539;52.202;9.876;2024-01-27T01:30:11;11.10;;;2.40;;
19675;SDS011;39539;52.202;9.876;2024-01-27T01:32:37;14.90;;;2.58;;
19675;SDS011;39539;52.202;9.876;2024-01-27T01:35:02;9.85;;;2.83;;
19675;SDS011;39539;52.202;9.876;2024-01-27T01:37:28;13.25;;;2.97;;
19675;SDS011;39539;52.202;9.876;2024-01-27T01:39:54;18.88;;;3.40;;
19675;SDS011;39539;52.202;9.876;2024-01-27T01:42:19;13.38;;;2.70;;
19675;SDS011;39539;52.202;9.876;2024-01-27T01:44:48;11.95;;;2.50;;
19675;SDS011;39539;52.202;9.876;2024-01-27T01:47:13;9.95;;;2.65;;
19675;SDS011;39539;52.202;9.876;2024-01-27T01:49:39;11.38;;;3.30;;
19675;SDS011;39539;52.202;9.876;2024-01-27T01:52:05;11.25;;;3.13;;
19675;SDS011;39539;52.202;9.876;2024-01-27T01:54:31;8.98;;;2.72;;
19675;SDS011;39539;52.202;9.876;2024-01-27T01:56:57;10.13;;;2.67;;
19675;SDS011;39539;52.202;9.876;2024-01-27T01:59:23;5.28;;;2.30;;
19675;SDS011;39539;52.202;9.876;2024-01-27T02:01:48;12.30;;;2.40;;
19675;SDS011;39539;52.202;9.876;2024-01-27T02:04:14;8.63;;;2.05;;
19675;SDS011;39539;52.202;9.876;2024-01-27T02:06:39;9.60;;;2.42;;
19675;SDS011;39539;52.202;9.876;2024-01-27T02:09:04;11.50;;;2.95;;
19675;SDS011;39539;52.202;9.876;2024-01-27T02:11:30;12.85;;;2.75;;
19675;SDS011;39539;52.202;9.876;2024-01-27T02:13:55;8.60;;;3.45;;
19675;SDS011;39539;52.202;9.876;2024-01-27T02:16:20;9.52;;;2.60;;
19675;SDS011;39539;52.202;9.876;2024-01-27T02:18:46;9.63;;;2.60;;
19675;SDS011;39539;52.202;9.876;2024-01-27T02:21:12;14.55;;;3.13;;
19675;SDS011;39539;52.202;9.876;2024-01-27T02:23:37;9.10;;;3.25;;
19675;SDS011;39539;52.202;9.876;2024-01-27T02:26:02;8.70;;;2.58;;
19675;SDS011;39539;52.202;9.876;2024-01-27T02:31:50;10.63;;;2.72;;
19675;SDS011;39539;52.202;9.876;2024-01-27T02:34:15;15.48;;;3.00;;
19675;SDS011;39539;52.202;9.876;2024-01-27T02:36:40;7.20;;;2.78;;
19675;SDS011;39539;52.202;9.876;2024-01-27T02:39:06;14.68;;;3.88;;
19675;SDS011;39539;52.202;9.876;2024-01-27T02:41:31;13.63;;;2.70;;
19675;SDS011;39539;52.202;9.876;2024-01-27T02:44:00;13.57;;;3.35;;
19675;SDS011;39539;52.202;9.876;2024-01-27T02:46:25;9.63;;;2.72;;
19675;SDS011;39539;52.202;9.876;2024-01-27T02:48:50;10.47;;;2.47;;
19675;SDS011;39539;52.202;9.876;2024-01-27T02:51:19;12.93;;;4.25;;
19675;SDS011;39539;52.202;9.876;2024-01-27T02:53:45;16.15;;;3.72;;
19675;SDS011;39539;52.202;9.876;2024-01-27T02:56:10;13.00;;;3.25;;
19675;SDS011;39539;52.202;9.876;2024-01-27T02:58:36;12.90;;;3.22;;
19675;SDS011;39539;52.202;9.876;2024-01-27T03:01:01;17.45;;;3.88;;
19675;SDS011;39539;52.202;9.876;2024-01-27T03:03:26;16.38;;;3.78;;
19675;SDS011;39539;52.202;9.876;2024-01-27T03:05:52;22.05;;;4.72;;
19675;SDS011;39539;52.202;9.876;2024-01-27T03:08:17;10.00;;;3.95;;
19675;SDS011;39539;52.202;9.876;2024-01-27T03:10:42;10.02;;;3.08;;
19675;SDS011;39539;52.202;9.876;2024-01-27T03:13:08;12.82;;;3.53;;
19675;SDS011;39539;52.202;9.876;2024-01-27T03:15:33;15.27;;;3.40;;
19675;SDS011;39539;52.202;9.876;2024-01-27T03:17:58;14.63;;;3.70;;
19675;SDS011;39539;52.202;9.876;2024-01-27T03:20:24;18.45;;;4.13;;
19675;SDS011;39539;52.202;9.876;2024-01-27T03:22:49;10.85;;;3.33;;
19675;SDS011;39539;52.202;9.876;2024-01-27T03:25:15;13.18;;;4.15;;
19675;SDS011;39539;52.202;9.876;2024-01-27T03:27:40;12.27;;;3.95;;
19675;SDS011;39539;52.202;9.876;2024-01-27T03:30:05;13.98;;;4.10;;
19675;SDS011;39539;52.202;9.876;2024-01-27T03:32:32;17.45;;;3.80;;
19675;SDS011;39539;52.202;9.876;2024-01-27T03:35:02;9.65;;;3.63;;
19675;SDS011;39539;52.202;9.876;2024-01-27T03:37:28;10.52;;;4.03;;
19675;SDS011;39539;52.202;9.876;2024-01-27T03:39:53;18.50;;;3.95;;
19675;SDS011;39539;52.202;9.876;2024-01-27T03:42:18;15.70;;;4.10;;
19675;SDS011;39539;52.202;9.876;2024-01-27T03:44:44;11.70;;;3.40;;
19675;SDS011;39539;52.202;9.876;2024-01-27T03:47:09;15.52;;;3.65;;
19675;SDS011;39539;52.202;9.876;2024-01-27T03:49:34;18.83;;;4.13;;
19675;SDS011;39539;52.202;9.876;2024-01-27T03:52:00;21.52;;;4.60;;
19675;SDS011;39539;52.202;9.876;2024-01-27T03:54:25;14.90;;;3.45;;
19675;SDS011;39539;52.202;9.876;2024-01-27T03:56:50;13.60;;;4.25;;
19675;SDS011;39539;52.202;9.876;2024-01-27T03:59:16;18.95;;;4.28;;
19675;SDS011;39539;52.202;9.876;2024-01-27T04:01:41;10.93;;;3.92;;
19675;SDS011;39539;52.202;9.876;2024-01-27T04:04:07;18.98;;;4.25;;
19675;SDS011;39539;52.202;9.876;2024-01-27T04:06:36;12.20;;;3.30;;
19675;SDS011;39539;52.202;9.876;2024-01-27T04:09:05;10.73;;;4.38;;
19675;SDS011;39539;52.202;9.876;2024-01-27T04:11:34;15.55;;;3.85;;
19675;SDS011;39539;52.202;9.876;2024-01-27T04:14:01;19.83;;;4.68;;
19675;SDS011;39539;52.202;9.876;2024-01-27T04:16:27;15.77;;;4.25;;
19675;SDS011;39539;52.202;9.876;2024-01-27T04:18:52;12.23;;;3.97;;
19675;SDS011;39539;52.202;9.876;2024-01-27T04:21:17;14.57;;;4.57;;
19675;SDS011;39539;52.202;9.876;2024-01-27T04:23:43;15.40;;;4.85;;
19675;SDS011;39539;52.202;9.876;2024-01-27T04:26:08;14.60;;;4.40;;
19675;SDS011;39539;52.202;9.876;2024-01-27T04:28:35;18.27;;;4.57;;
19675;SDS011;39539;52.202;9.876;2024-01-27T04:31:00;15.50;;;3.88;;
19675;SDS011;39539;52.202;9.876;2024-01-27T04:33:26;18.05;;;4.28;;
19675;SDS011;39539;52.202;9.876;2024-01-27T04:35:51;13.88;;;5.32;;
19675;SDS011;39539;52.202;9.876;2024-01-27T04:38:17;12.35;;;3.63;;
19675;SDS011;39539;52.202;9.876;2024-01-27T04:40:42;14.57;;;3.42;;
19675;SDS011;39539;52.202;9.876;2024-01-27T04:43:07;18.00;;;4.50;;
19675;SDS011;39539;52.202;9.876;2024-01-27T04:45:33;15.57;;;3.63;;
19675;SDS011;39539;52.202;9.876;2024-01-27T04:47:58;19.90;;;4.20;;
19675;SDS011;39539;52.202;9.876;2024-01-27T04:50:25;17.27;;;4.90;;
19675;SDS011;39539;52.202;9.876;2024-01-27T04:52:52;11.23;;;4.38;;
19675;SDS011;39539;52.202;9.876;2024-01-27T04:55:18;18.65;;;5.40;;
19675;SDS011;39539;52.202;9.876;2024-01-27T04:57:43;14.77;;;4.38;;
19675;SDS011;39539;52.202;9.876;2024-01-27T05:00:08;12.80;;;4.18;;
19675;SDS011;39539;52.202;9.876;2024-01-27T05:02:39;14.88;;;4.50;;
19675;SDS011;39539;52.202;9.876;2024-01-27T05:05:05;15.55;;;4.35;;
19675;SDS011;39539;52.202;9.876;2024-01-27T05:07:31;18.95;;;6.13;;
19675;SDS011;39539;52.202;9.876;2024-01-27T05:09:57;14.27;;;3.95;;
19675;SDS011;39539;52.202;9.876;2024-01-27T05:12:22;10.98;;;4.90;;
19675;SDS011;39539;52.202;9.876;2024-01-27T05:14:47;9.65;;;3.90;;
19675;SDS011;39539;52.202;9.876;2024-01-27T05:17:13;16.58;;;4.95;;
19675;SDS011;39539;52.202;9.876;2024-01-27T05:19:38;14.00;;;4.60;;
19675;SDS011;39539;52.202;9.876;2024-01-27T05:22:03;15.02;;;4.50;;
19675;SDS011;39539;52.202;9.876;2024-01-27T05:24:28;13.85;;;5.20;;
19675;SDS011;39539;52.202;9.876;2024-01-27T05:26:54;18.27;;;5.57;;
19675;SDS011;39539;52.202;9.876;2024-01-27T05:29:19;11.20;;;5.30;;
19675;SDS011;39539;52.202;9.876;2024-01-27T05:31:44;16.40;;;4.20;;
19675;SDS011;39539;52.202;9.876;2024-01-27T05:34:12;9.38;;;4.60;;
19675;SDS011;39539;52.202;9.876;2024-01-27T05:36:38;16.17;;;4.53;;
19675;SDS011;39539;52.202;9.876;2024-01-27T05:39:03;14.93;;;5.20;;
19675;SDS011;39539;52.202;9.876;2024-01-27T05:41:29;14.27;;;5.25;;
19675;SDS011;39539;52.202;9.876;2024-01-27T05:43:55;15.75;;;4.57;;
19675;SDS011;39539;52.202;9.876;2024-01-27T05:46:22;12.40;;;4.70;;
19675;SDS011;39539;52.202;9.876;2024-01-27T05:48:50;11.27;;;3.95;;
19675;SDS011;39539;52.202;9.876;2024-01-27T05:51:18;9.18;;;4.22;;
19675;SDS011;39539;52.202;9.876;2024-01-27T05:53:44;11.80;;;3.65;;
19675;SDS011;39539;52.202;9.876;2024-01-27T05:56:10;13.73;;;4.38;;
19675;SDS011;39539;52.202;9.876;2024-01-27T05:58:36;17.35;;;4.43;;
19675;SDS011;39539;52.202;9.876;2024-01-27T06:01:01;13.23;;;4.55;;
19675;SDS011;39539;52.202;9.876;2024-01-27T06:03:27;13.15;;;3.83;;
19675;SDS011;39539;52.202;9.876;2024-01-27T06:05:52;20.67;;;4.75;;
19675;SDS011;39539;52.202;9.876;2024-01-27T06:08:17;17.75;;;4.40;;
19675;SDS011;39539;52.202;9.876;2024-01-27T06:10:44;11.55;;;4.38;;
19675;SDS011;39539;52.202;9.876;2024-01-27T06:13:10;15.80;;;4.57;;
19675;SDS011;39539;52.202;9.876;2024-01-27T06:15:35;22.75;;;5.78;;
19675;SDS011;39539;52.202;9.876;2024-01-27T06:18:01;9.50;;;4.30;;
19675;SDS011;39539;52.202;9.876;2024-01-27T06:20:26;11.50;;;4.60;;
19675;SDS011;39539;52.202;9.876;2024-01-27T06:22:51;9.20;;;4.15;;
19675;SDS011;39539;52.202;9.876;2024-01-27T06:25:22;15.85;;;4.53;;
19675;SDS011;39539;52.202;9.876;2024-01-27T06:27:47;15.73;;;5.45;;
19675;SDS011;39539;52.202;9.876;2024-01-27T06:30:13;17.55;;;4.95;;
19675;SDS011;39539;52.202;9.876;2024-01-27T06:32:40;10.57;;;4.97;;
19675;SDS011;39539;52.202;9.876;2024-01-27T06:35:06;13.55;;;4.43;;
19675;SDS011;39539;52.202;9.876;2024-01-27T06:37:32;11.98;;;4.45;;
19675;SDS011;39539;52.202;9.876;2024-01-27T06:39:57;13.50;;;5.13;;
19675;SDS011;39539;52.202;9.876;2024-01-27T06:42:22;16.83;;;5.55;;
19675;SDS011;39539;52.202;9.876;2024-01-27T06:44:48;13.65;;;5.05;;
19675;SDS011;39539;52.202;9.876;2024-01-27T06:47:13;14.43;;;4.53;;
19675;SDS011;39539;52.202;9.876;2024-01-27T06:49:39;13.40;;;5.25;;
19675;SDS011;39539;52.202;9.876;2024-01-27T06:52:04;16.33;;;5.43;;
19675;SDS011;39539;52.202;9.876;2024-01-27T06:54:29;12.98;;;5.93;;
19675;SDS011;39539;52.202;9.876;2024-01-27T06:56:55;16.25;;;6.10;;
19675;SDS011;39539;52.202;9.876;2024-01-27T06:59:20;12.30;;;5.13;;
19675;SDS011;39539;52.202;9.876;2024-01-27T07:01:48;15.38;;;6.05;;
19675;SDS011;39539;52.202;9.876;2024-01-27T07:04:14;14.77;;;5.18;;
19675;SDS011;39539;52.202;9.876;2024-01-27T07:06:39;17.13;;;5.85;;
19675;SDS011;39539;52.202;9.876;2024-01-27T07:09:05;18.38;;;5.68;;
19675;SDS011;39539;52.202;9.876;2024-01-27T07:11:31;9.07;;;5.10;;
19675;SDS011;39539;52.202;9.876;2024-01-27T07:13:57;16.10;;;5.05;;
19675;SDS011;39539;52.202;9.876;2024-01-27T07:16:22;12.18;;;5.72;;
19675;SDS011;39539;52.202;9.876;2024-01-27T07:18:47;13.18;;;6.30;;
19675;SDS011;39539;52.202;9.876;2024-01-27T07:21:14;11.63;;;5.80;;
19675;SDS011;39539;52.202;9.876;2024-01-27T07:23:43;12.80;;;5.53;;
19675;SDS011;39539;52.202;9.876;2024-01-27T07:26:09;13.13;;;5.43;;
19675;SDS011;39539;52.202;9.876;2024-01-27T07:28:36;13.27;;;5.35;;
19675;SDS011;39539;52.202;9.876;2024-01-27T07:31:01;12.15;;;5.90;;
19675;SDS011;39539;52.202;9.876;2024-01-27T07:33:26;11.57;;;5.57;;
19675;SDS011;39539;52.202;9.876;2024-01-27T07:35:52;15.13;;;5.45;;
19675;SDS011;39539;52.202;9.876;2024-01-27T07:38:17;18.40;;;6.30;;
19675;SDS011;39539;52.202;9.876;2024-01-27T07:40:43;14.85;;;5.68;;
19675;SDS011;39539;52.202;9.876;2024-01-27T07:43:08;9.93;;;7.10;;
19675;SDS011;39539;52.202;9.876;2024-01-27T07:45:33;13.43;;;5.35;;
19675;SDS011;39539;52.202;9.876;2024-01-27T07:47:58;14.75;;;6.07;;
19675;SDS011;39539;52.202;9.876;2024-01-27T07:50:24;20.05;;;7.28;;
19675;SDS011;39539;52.202;9.876;2024-01-27T07:52:49;23.27;;;6.68;;
19675;SDS011;39539;52.202;9.876;2024-01-27T07:55:14;16.83;;;6.57;;
19675;SDS011;39539;52.202;9.876;2024-01-27T07:57:42;14.10;;;6.22;;
19675;SDS011;39539;52.202;9.876;2024-01-27T08:00:07;16.58;;;6.25;;
19675;SDS011;39539;52.202;9.876;2024-01-27T08:02:33;16.00;;;7.10;;
19675;SDS011;39539;52.202;9.876;2024-01-27T08:04:58;13.88;;;6.30;;
19675;SDS011;39539;52.202;9.876;2024-01-27T08:07:24;12.55;;;5.20;;
19675;SDS011;39539;52.202;9.876;2024-01-27T08:09:49;11.88;;;5.20;;
19675;SDS011;39539;52.202;9.876;2024-01-27T08:12:14;9.65;;;5.18;;
19675;SDS011;39539;52.202;9.876;2024-01-27T08:14:40;7.88;;;5.10;;
19675;SDS011;39539;52.202;9.876;2024-01-27T08:17:05;9.45;;;5.72;;
19675;SDS011;39539;52.202;9.876;2024-01-27T08:19:31;12.75;;;5.13;;
19675;SDS011;39539;52.202;9.876;2024-01-27T08:21:56;14.73;;;5.28;;
19675;SDS011;39539;52.202;9.876;2024-01-27T08:24:22;10.57;;;5.72;;
19675;SDS011;39539;52.202;9.876;2024-01-27T08:26:49;9.50;;;5.63;;
19675;SDS011;39539;52.202;9.876;2024-01-27T08:29:14;10.80;;;5.43;;
19675;SDS011;39539;52.202;9.876;2024-01-27T08:31:40;10.68;;;4.80;;
19675;SDS011;39539;52.202;9.876;2024-01-27T08:34:06;8.60;;;5.15;;
19675;SDS011;39539;52.202;9.876;2024-01-27T08:36:31;12.75;;;5.82;;
19675;SDS011;39539;52.202;9.876;2024-01-27T08:38:58;12.38;;;5.45;;
19675;SDS011;39539;52.202;9.876;2024-01-27T08:41:24;12.40;;;5.10;;
19675;SDS011;39539;52.202;9.876;2024-01-27T08:43:49;14.85;;;6.50;;
19675;SDS011;39539;52.202;9.876;2024-01-27T08:46:14;10.82;;;5.30;;
19675;SDS011;39539;52.202;9.876;2024-01-27T08:48:42;14.82;;;5.50;;
19675;SDS011;39539;52.202;9.876;2024-01-27T08:51:08;13.65;;;5.82;;
19675;SDS011;39539;52.202;9.876;2024-01-27T08:53:34;9.35;;;5.07;;
19675;SDS011;39539;52.202;9.876;2024-01-27T08:56:00;15.00;;;5.20;;
19675;SDS011;39539;52.202;9.876;2024-01-27T08:58:26;10.52;;;5.20;;
19675;SDS011;39539;52.202;9.876;2024-01-27T09:00:51;9.80;;;5.47;;
19675;SDS011;39539;52.202;9.876;2024-01-27T09:03:17;14.50;;;5.30;;
19675;SDS011;39539;52.202;9.876;2024-01-27T09:05:45;9.48;;;5.72;;
19675;SDS011;39539;52.202;9.876;2024-01-27T09:08:11;10.43;;;5.78;;
19675;SDS011;39539;52.202;9.876;2024-01-27T09:10:36;14.77;;;6.22;;
19675;SDS011;39539;52.202;9.876;2024-01-27T09:13:02;11.63;;;6.88;;
19675;SDS011;39539;52.202;9.876;2024-01-27T09:15:27;9.93;;;6.47;;
19675;SDS011;39539;52.202;9.876;2024-01-27T09:17:52;12.48;;;6.88;;
19675;SDS011;39539;52.202;9.876;2024-01-27T09:20:18;16.30;;;7.07;;
19675;SDS011;39539;52.202;9.876;2024-01-27T09:22:44;11.75;;;6.82;;
19675;SDS011;39539;52.202;9.876;2024-01-27T09:25:12;11.15;;;6.78;;
19675;SDS011;39539;52.202;9.876;2024-01-27T09:27:37;12.38;;;6.50;;
19675;SDS011;39539;52.202;9.876;2024-01-27T09:30:03;13.15;;;7.78;;
19675;SDS011;39539;52.202;9.876;2024-01-27T09:32:30;13.77;;;7.90;;
19675;SDS011;39539;52.202;9.876;2024-01-27T09:34:55;11.20;;;8.20;;
19675;SDS011;39539;52.202;9.876;2024-01-27T09:37:20;11.77;;;8.27;;
19675;SDS011;39539;52.202;9.876;2024-01-27T09:39:46;18.55;;;8.95;;
19675;SDS011;39539;52.202;9.876;2024-01-27T09:42:12;17.60;;;9.30;;
19675;SDS011;39539;52.202;9.876;2024-01-27T09:44:42;13.45;;;8.73;;
19675;SDS011;39539;52.202;9.876;2024-01-27T09:47:10;16.60;;;8.45;;
19675;SDS011;39539;52.202;9.876;2024-01-27T09:49:36;14.20;;;8.85;;
19675;SDS011;39539;52.202;9.876;2024-01-27T09:52:04;13.60;;;8.57;;
19675;SDS011;39539;52.202;9.876;2024-01-27T09:54:30;14.27;;;8.45;;
19675;SDS011;39539;52.202;9.876;2024-01-27T09:56:55;18.92;;;9.40;;
19675;SDS011;39539;52.202;9.876;2024-01-27T09:59:21;15.38;;;9.57;;
19675;SDS011;39539;52.202;9.876;2024-01-27T10:01:47;16.67;;;9.30;;
19675;SDS011;39539;52.202;9.876;2024-01-27T10:04:13;12.98;;;8.95;;
19675;SDS011;39539;52.202;9.876;2024-01-27T10:06:40;14.10;;;9.77;;
19675;SDS011;39539;52.202;9.876;2024-01-27T10:09:05;13.35;;;9.63;;
19675;SDS011;39539;52.202;9.876;2024-01-27T10:11:31;13.68;;;9.30;;
19675;SDS011;39539;52.202;9.876;2024-01-27T10:13:58;13.40;;;9.50;;
19675;SDS011;39539;52.202;9.876;2024-01-27T10:16:27;16.88;;;9.77;;
19675;SDS011;39539;52.202;9.876;2024-01-27T10:19:02;14.13;;;9.40;;
19675;SDS011;39539;52.202;9.876;2024-01-27T10:21:29;12.93;;;9.80;;
19675;SDS011;39539;52.202;9.876;2024-01-27T10:23:54;21.23;;;11.23;;
19675;SDS011;39539;52.202;9.876;2024-01-27T10:26:19;16.73;;;10.07;;
19675;SDS011;39539;52.202;9.876;2024-01-27T10:28:55;16.05;;;10.63;;
19675;SDS011;39539;52.202;9.876;2024-01-27T10:31:25;16.17;;;10.70;;
19675;SDS011;39539;52.202;9.876;2024-01-27T10:33:52;18.38;;;11.25;;
19675;SDS011;39539;52.202;9.876;2024-01-27T10:36:19;15.85;;;10.55;;
19675;SDS011;39539;52.202;9.876;2024-01-27T10:38:45;16.15;;;11.77;;
19675;SDS011;39539;52.202;9.876;2024-01-27T10:41:10;15.05;;;10.63;;
19675;SDS011;39539;52.202;9.876;2024-01-27T10:43:36;17.00;;;10.70;;
19675;SDS011;39539;52.202;9.876;2024-01-27T10:46:06;16.02;;;10.27;;
19675;SDS011;39539;52.202;9.876;2024-01-27T10:48:36;18.10;;;10.02;;
19675;SDS011;39539;52.202;9.876;2024-01-27T10:51:11;14.63;;;10.95;;
19675;SDS011;39539;52.202;9.876;2024-01-27T10:53:38;15.25;;;11.35;;
19675;SDS011;39539;52.202;9.876;2024-01-27T10:56:06;17.75;;;10.20;;
19675;SDS011;39539;52.202;9.876;2024-01-27T10:58:34;16.85;;;10.15;;
19675;SDS011;39539;52.202;9.876;2024-01-27T11:01:08;18.48;;;10.18;;
19675;SDS011;39539;52.202;9.876;2024-01-27T11:03:38;21.67;;;10.45;;
19675;SDS011;39539;52.202;9.876;2024-01-27T11:06:08;16.30;;;9.68;;
19675;SDS011;39539;52.202;9.876;2024-01-27T11:08:34;10.85;;;7.72;;
19675;SDS011;39539;52.202;9.876;2024-01-27T11:11:00;12.18;;;9.05;;
19675;SDS011;39539;52.202;9.876;2024-01-27T11:13:27;12.73;;;8.23;;
19675;SDS011;39539;52.202;9.876;2024-01-27T11:15:55;17.08;;;9.55;;
19675;SDS011;39539;52.202;9.876;2024-01-27T11:18:20;13.35;;;9.32;;
19675;SDS011;39539;52.202;9.876;2024-01-27T11:20:47;9.35;;;7.07;;
19675;SDS011;39539;52.202;9.876;2024-01-27T11:23:13;10.57;;;6.50;;
19675;SDS011;39539;52.202;9.876;2024-01-27T11:25:41;15.40;;;6.65;;
19675;SDS011;39539;52.202;9.876;2024-01-27T11:28:14;11.80;;;5.95;;
19675;SDS011;39539;52.202;9.876;2024-01-27T11:30:46;11.60;;;6.85;;
19675;SDS011;39539;52.202;9.876;2024-01-27T11:33:12;12.43;;;6.20;;
19675;SDS011;39539;52.202;9.876;2024-01-27T11:35:38;14.95;;;6.10;;
19675;SDS011;39539;52.202;9.876;2024-01-27T11:38:03;15.07;;;6.35;;
19675;SDS011;39539;52.202;9.876;2024-01-27T11:40:29;11.15;;;6.57;;
19675;SDS011;39539;52.202;9.876;2024-01-27T11:42:58;11.85;;;6.15;;
19675;SDS011;39539;52.202;9.876;2024-01-27T11:45:27;11.00;;;6.32;;
19675;SDS011;39539;52.202;9.876;2024-01-27T11:47:54;12.98;;;6.75;;
19675;SDS011;39539;52.202;9.876;2024-01-27T11:50:20;14.15;;;6.68;;
19675;SDS011;39539;52.202;9.876;2024-01-27T11:52:46;11.38;;;6.03;;
19675;SDS011;39539;52.202;9.876;2024-01-27T11:55:12;10.88;;;6.07;;
19675;SDS011;39539;52.202;9.876;2024-01-27T11:57:41;17.70;;;6.15;;
19675;SDS011;39539;52.202;9.876;2024-01-27T12:00:07;10.88;;;5.72;;
19675;SDS011;39539;52.202;9.876;2024-01-27T12:02:34;12.43;;;5.18;;
19675;SDS011;39539;52.202;9.876;2024-01-27T12:05:00;8.18;;;5.47;;
19675;SDS011;39539;52.202;9.876;2024-01-27T12:07:28;8.55;;;4.80;;
19675;SDS011;39539;52.202;9.876;2024-01-27T12:09:53;12.40;;;5.35;;
19675;SDS011;39539;52.202;9.876;2024-01-27T12:12:19;11.75;;;5.88;;
19675;SDS011;39539;52.202;9.876;2024-01-27T12:14:45;15.60;;;5.63;;
19675;SDS011;39539;52.202;9.876;2024-01-27T12:17:12;10.73;;;5.40;;
19675;SDS011;39539;52.202;9.876;2024-01-27T12:19:38;14.70;;;5.85;;
19675;SDS011;39539;52.202;9.876;2024-01-27T12:22:04;11.32;;;5.32;;
19675;SDS011;39539;52.202;9.876;2024-01-27T12:24:45;14.63;;;5.90;;
19675;SDS011;39539;52.202;9.876;2024-01-27T12:27:12;13.55;;;5.47;;
19675;SDS011;39539;52.202;9.876;2024-01-27T12:29:37;12.70;;;5.70;;
19675;SDS011;39539;52.202;9.876;2024-01-27T12:32:07;13.07;;;5.50;;
19675;SDS011;39539;52.202;9.876;2024-01-27T12:34:33;17.40;;;5.25;;
19675;SDS011;39539;52.202;9.876;2024-01-27T12:37:04;12.70;;;5.25;;
19675;SDS011;39539;52.202;9.876;2024-01-27T12:39:30;11.55;;;5.50;;
19675;SDS011;39539;52.202;9.876;2024-01-27T12:41:56;14.10;;;5.60;;
19675;SDS011;39539;52.202;9.876;2024-01-27T12:44:21;10.20;;;4.93;;
19675;SDS011;39539;52.202;9.876;2024-01-27T12:46:47;10.95;;;5.20;;
19675;SDS011;39539;52.202;9.876;2024-01-27T12:49:12;13.90;;;5.47;;
19675;SDS011;39539;52.202;9.876;2024-01-27T12:51:38;11.55;;;5.07;;
19675;SDS011;39539;52.202;9.876;2024-01-27T12:54:03;11.45;;;4.95;;
19675;SDS011;39539;52.202;9.876;2024-01-27T12:56:29;14.88;;;5.45;;
19675;SDS011;39539;52.202;9.876;2024-01-27T12:58:54;10.50;;;5.10;;
19675;SDS011;39539;52.202;9.876;2024-01-27T13:01:20;10.05;;;5.22;;
19675;SDS011;39539;52.202;9.876;2024-01-27T13:03:45;11.95;;;5.68;;
19675;SDS011;39539;52.202;9.876;2024-01-27T13:06:11;15.13;;;5.20;;
19675;SDS011;39539;52.202;9.876;2024-01-27T13:08:37;14.98;;;5.85;;
19675;SDS011;39539;52.202;9.876;2024-01-27T13:11:03;15.98;;;5.30;;
19675;SDS011;39539;52.202;9.876;2024-01-27T13:13:29;12.15;;;5.10;;
19675;SDS011;39539;52.202;9.876;2024-01-27T13:15:54;10.52;;;5.07;;
19675;SDS011;39539;52.202;9.876;2024-01-27T13:18:20;13.73;;;5.45;;
19675;SDS011;39539;52.202;9.876;2024-01-27T13:20:45;14.30;;;5.70;;
19675;SDS011;39539;52.202;9.876;2024-01-27T13:23:12;9.13;;;5.03;;
19675;SDS011;39539;52.202;9.876;2024-01-27T13:25:37;14.05;;;5.13;;
19675;SDS011;39539;52.202;9.876;2024-01-27T13:28:04;8.70;;;5.22;;
19675;SDS011;39539;52.202;9.876;2024-01-27T13:30:34;13.02;;;5.00;;
19675;SDS011;39539;52.202;9.876;2024-01-27T13:32:59;9.43;;;5.50;;
19675;SDS011;39539;52.202;9.876;2024-01-27T13:48:55;10.27;;;3.78;;
19675;SDS011;39539;52.202;9.876;2024-01-27T13:51:20;7.35;;;3.25;;
19675;SDS011;39539;52.202;9.876;2024-01-27T13:53:46;9.40;;;3.35;;
19675;SDS011;39539;52.202;9.876;2024-01-27T13:56:11;8.15;;;3.15;;
19675;SDS011;39539;52.202;9.876;2024-01-27T13:58:36;8.38;;;3.47;;
19675;SDS011;39539;52.202;9.876;2024-01-27T14:01:02;9.50;;;3.83;;
19675;SDS011;39539;52.202;9.876;2024-01-27T14:03:28;14.30;;;3.80;;
19675;SDS011;39539;52.202;9.876;2024-01-27T14:05:54;8.27;;;3.50;;
19675;SDS011;39539;52.202;9.876;2024-01-27T14:08:19;9.85;;;3.25;;
19675;SDS011;39539;52.202;9.876;2024-01-27T14:10:46;12.77;;;3.22;;
19675;SDS011;39539;52.202;9.876;2024-01-27T14:13:13;9.00;;;3.45;;
19675;SDS011;39539;52.202;9.876;2024-01-27T14:15:38;10.98;;;4.15;;
19675;SDS011;39539;52.202;9.876;2024-01-27T14:18:04;10.55;;;3.40;;
19675;SDS011;39539;52.202;9.876;2024-01-27T14:20:32;10.15;;;3.92;;
19675;SDS011;39539;52.202;9.876;2024-01-27T14:22:59;11.23;;;3.70;;
19675;SDS011;39539;52.202;9.876;2024-01-27T14:25:25;8.45;;;3.05;;
19675;SDS011;39539;52.202;9.876;2024-01-27T14:27:50;8.77;;;3.63;;
19675;SDS011;39539;52.202;9.876;2024-01-27T14:30:15;7.60;;;3.00;;
19675;SDS011;39539;52.202;9.876;2024-01-27T14:32:41;7.85;;;2.65;;
19675;SDS011;39539;52.202;9.876;2024-01-27T14:35:06;8.13;;;3.85;;
19675;SDS011;39539;52.202;9.876;2024-01-27T14:37:32;9.60;;;3.25;;
19675;SDS011;39539;52.202;9.876;2024-01-27T14:39:58;10.35;;;2.95;;
19675;SDS011;39539;52.202;9.876;2024-01-27T14:42:24;11.45;;;2.78;;
19675;SDS011;39539;52.202;9.876;2024-01-27T14:44:50;11.35;;;3.08;;